createdAt,value
2022-11-01T00:02:15.614Z,17.17
2022-11-01T00:04:44.168Z,18.52
2022-11-01T00:07:12.471Z,18.88
2022-11-01T00:09:41.101Z,18.13
2022-11-01T00:12:09.819Z,19.02
2022-11-01T00:14:39.437Z,18.45
2022-11-01T00:17:07.991Z,17.83
2022-11-01T00:19:36.458Z,20.40
2022-11-01T00:22:08.404Z,18.52
2022-11-01T00:24:37.135Z,18.95
2022-11-01T00:27:05.550Z,17.08
2022-11-01T00:29:34.122Z,19.92
2022-11-01T00:32:04.512Z,19.88
2022-11-01T00:34:33.136Z,17.00
2022-11-01T00:37:01.726Z,19.33
2022-11-01T00:39:31.428Z,20.48
2022-11-01T00:41:59.942Z,19.77
2022-11-01T00:44:28.587Z,19.27
2022-11-01T00:46:56.848Z,19.70
2022-11-01T00:49:26.527Z,17.52
2022-11-01T00:51:55.126Z,18.05
2022-11-01T00:54:23.570Z,17.95
2022-11-01T00:56:52.105Z,16.27
2022-11-01T00:59:20.826Z,20.75
2022-11-01T01:01:49.539Z,17.40
2022-11-01T01:04:18.555Z,13.93
2022-11-01T01:06:48.641Z,18.95
2022-11-01T01:09:17.449Z,17.50
2022-11-01T01:11:45.992Z,18.98
2022-11-01T01:14:14.600Z,17.92
2022-11-01T01:16:43.190Z,20.02
2022-11-01T01:19:11.722Z,16.55
2022-11-01T01:21:40.274Z,20.08
2022-11-01T01:24:10.376Z,22.38
2022-11-01T01:26:38.964Z,19.90
2022-11-01T01:29:07.447Z,19.40
2022-11-01T01:31:36.063Z,19.17
2022-11-01T01:34:04.679Z,16.60
2022-11-01T01:36:33.165Z,20.17
2022-11-01T01:39:01.427Z,17.33
2022-11-01T01:41:49.751Z,15.15
2022-11-01T01:45:08.514Z,19.05
2022-11-01T01:47:39.010Z,17.65
2022-11-01T01:50:10.685Z,16.77
2022-11-01T01:52:43.924Z,18.33
2022-11-01T01:55:14.890Z,18.77
2022-11-01T01:57:45.032Z,16.52
2022-11-01T02:00:15.664Z,19.50
2022-11-01T02:02:44.883Z,18.63
2022-11-01T02:05:19.469Z,17.90
2022-11-01T02:07:48.236Z,17.67
2022-11-01T02:10:17.408Z,19.17
2022-11-01T02:12:50.382Z,16.15
2022-11-01T02:15:22.574Z,18.58
2022-11-01T02:18:00.979Z,17.85
2022-11-01T02:21:01.939Z,17.88
2022-11-01T02:24:24.760Z,18.40
2022-11-01T02:27:21.949Z,15.85
2022-11-01T02:30:13.924Z,17.48
2022-11-01T02:33:04.179Z,17.42
2022-11-01T02:35:44.775Z,20.00
2022-11-01T02:38:20.236Z,17.58
2022-11-01T02:40:56.114Z,18.85
2022-11-01T02:43:30.433Z,18.38
2022-11-01T02:46:20.063Z,18.77
2022-11-01T02:48:51.323Z,18.02
2022-11-01T02:51:22.863Z,17.67
2022-11-01T02:53:51.350Z,17.88
2022-11-01T02:56:22.827Z,21.25
2022-11-01T02:58:53.683Z,18.55
2022-11-01T03:01:26.491Z,18.60
2022-11-01T03:03:58.376Z,16.38
2022-11-01T03:06:31.489Z,17.23
2022-11-01T03:09:04.474Z,18.33
2022-11-01T03:11:41.041Z,18.05
2022-11-01T03:16:48.974Z,19.45
2022-11-01T03:19:30.892Z,17.00
2022-11-01T03:22:05.020Z,20.25
2022-11-01T03:24:39.461Z,20.83
2022-11-01T03:27:12.706Z,18.80
2022-11-01T03:29:44.061Z,16.83
2022-11-01T03:32:12.873Z,17.58
2022-11-01T03:34:47.172Z,19.95
2022-11-01T03:37:16.814Z,18.80
2022-11-01T03:39:48.006Z,16.25
2022-11-01T03:42:20.947Z,18.67
2022-11-01T03:44:55.577Z,18.88
2022-11-01T03:47:24.150Z,18.45
2022-11-01T03:50:16.686Z,21.25
2022-11-01T03:52:45.171Z,22.20
2022-11-01T03:55:23.015Z,20.13
2022-11-01T03:57:53.094Z,22.48
2022-11-01T04:00:24.094Z,23.25
2022-11-01T04:02:53.885Z,20.80
2022-11-01T04:05:26.280Z,19.10
2022-11-01T04:07:55.316Z,16.67
2022-11-01T04:10:25.884Z,17.17
2022-11-01T04:12:55.063Z,16.35
2022-11-01T04:15:38.916Z,17.98
2022-11-01T04:18:29.961Z,18.52
2022-11-01T04:21:02.616Z,19.83
2022-11-01T04:23:31.180Z,17.83
2022-11-01T04:25:59.325Z,23.38
2022-11-01T04:28:28.673Z,21.08
2022-11-01T04:30:57.443Z,22.73
2022-11-01T04:33:26.041Z,18.38
2022-11-01T04:35:54.500Z,17.88
2022-11-01T04:38:25.336Z,18.83
2022-11-01T04:40:53.970Z,22.27
2022-11-01T04:43:22.868Z,18.00
2022-11-01T04:45:55.789Z,19.75
2022-11-01T04:48:26.190Z,19.20
2022-11-01T04:50:55.433Z,18.85
2022-11-01T04:53:25.076Z,14.88
2022-11-01T04:55:53.794Z,16.08
2022-11-01T04:58:22.406Z,13.75
2022-11-01T05:00:50.947Z,14.32
2022-11-01T05:03:19.638Z,13.23
2022-11-01T05:05:48.360Z,14.98
2022-11-01T05:08:17.567Z,16.77
2022-11-01T05:10:47.774Z,15.20
2022-11-01T05:13:16.386Z,15.90
2022-11-01T05:15:59.629Z,14.85
2022-11-01T05:18:33.700Z,15.63
2022-11-01T05:21:02.397Z,16.08
2022-11-01T05:23:30.913Z,16.40
2022-11-01T05:26:01.220Z,14.32
2022-11-01T05:28:29.881Z,14.43
2022-11-01T05:31:00.162Z,15.20
2022-11-01T05:33:28.865Z,15.35
2022-11-01T05:35:57.596Z,15.23
2022-11-01T05:38:26.235Z,15.65
2022-11-01T05:40:54.982Z,15.85
2022-11-01T05:43:24.627Z,18.23
2022-11-01T05:45:53.194Z,15.07
2022-11-01T05:48:21.345Z,14.07
2022-11-01T05:50:49.964Z,16.02
2022-11-01T05:53:18.484Z,15.15
2022-11-01T05:55:46.623Z,17.42
2022-11-01T05:58:15.397Z,13.85
2022-11-01T06:00:45.673Z,17.90
2022-11-01T06:03:14.363Z,15.27
2022-11-01T06:05:42.594Z,15.20
2022-11-01T06:08:11.329Z,13.05
2022-11-01T06:10:39.972Z,13.68
2022-11-01T06:13:08.627Z,15.98
2022-11-01T06:15:39.591Z,13.98
2022-11-01T06:18:10.491Z,16.42
2022-11-01T06:20:38.998Z,15.32
2022-11-01T06:23:12.508Z,16.05
2022-11-01T06:25:41.234Z,13.57
2022-11-01T06:28:09.715Z,18.42
2022-11-01T06:30:39.067Z,15.82
2022-11-01T06:33:09.530Z,16.88
2022-11-01T06:35:39.291Z,16.25
2022-11-01T06:38:08.845Z,14.52
2022-11-01T06:40:38.496Z,13.55
2022-11-01T06:43:07.379Z,11.75
2022-11-01T06:45:35.832Z,16.58
2022-11-01T06:48:04.977Z,18.15
2022-11-01T06:50:34.120Z,17.85
2022-11-01T06:53:05.518Z,13.50
2022-11-01T06:55:34.115Z,13.75
2022-11-01T06:58:04.276Z,13.63
2022-11-01T07:00:33.466Z,16.67
2022-11-01T07:03:22.751Z,15.50
2022-11-01T07:05:57.027Z,14.98
2022-11-01T07:08:27.137Z,14.32
2022-11-01T07:10:55.970Z,13.90
2022-11-01T07:13:24.894Z,14.15
2022-11-01T07:15:53.955Z,13.85
2022-11-01T07:18:22.277Z,12.98
2022-11-01T07:20:51.060Z,16.05
2022-11-01T07:23:20.130Z,14.10
2022-11-01T07:25:54.335Z,17.13
2022-11-01T07:28:23.795Z,19.80
2022-11-01T07:30:53.302Z,24.50
2022-11-01T07:33:22.510Z,21.80
2022-11-01T07:35:52.520Z,25.98
2022-11-01T07:38:21.766Z,32.47
2022-11-01T07:40:52.434Z,26.20
2022-11-01T07:43:25.379Z,32.67
2022-11-01T07:46:13.676Z,26.85
2022-11-01T07:48:51.847Z,31.67
2022-11-01T07:51:29.780Z,30.05
2022-11-01T07:53:58.434Z,29.15
2022-11-01T07:56:27.204Z,29.67
2022-11-01T07:59:04.331Z,32.90
2022-11-01T08:01:40.633Z,32.40
2022-11-01T08:04:14.430Z,29.80
2022-11-01T08:06:45.799Z,28.58
2022-11-01T08:09:26.076Z,32.85
2022-11-01T08:11:56.926Z,30.90
2022-11-01T08:14:32.869Z,29.17
2022-11-01T08:17:10.824Z,28.90
2022-11-01T08:19:40.192Z,34.85
2022-11-01T08:22:09.057Z,35.20
2022-11-01T08:24:44.366Z,36.35
2022-11-01T08:27:13.109Z,43.60
2022-11-01T08:29:44.103Z,38.67
2022-11-01T08:32:12.627Z,35.10
2022-11-01T08:34:41.106Z,37.92
2022-11-01T08:37:09.650Z,35.05
2022-11-01T08:39:38.384Z,38.67
2022-11-01T08:42:07.291Z,43.22
2022-11-01T08:44:35.675Z,39.35
2022-11-01T08:47:06.298Z,41.97
2022-11-01T08:49:34.952Z,48.60
2022-11-01T08:52:04.037Z,40.65
2022-11-01T08:54:32.614Z,43.03
2022-11-01T08:57:07.933Z,44.95
2022-11-01T08:59:36.650Z,41.28
2022-11-01T09:02:07.252Z,40.85
2022-11-01T09:04:35.708Z,37.67
2022-11-01T09:07:04.158Z,44.58
2022-11-01T09:09:32.881Z,38.33
2022-11-01T09:12:01.782Z,41.63
2022-11-01T09:14:30.435Z,44.63
2022-11-01T09:17:01.881Z,39.08
2022-11-01T09:19:32.139Z,45.40
2022-11-01T09:22:01.484Z,42.15
2022-11-01T09:24:30.351Z,35.90
2022-11-01T09:26:59.086Z,44.83
2022-11-01T09:29:27.993Z,46.15
2022-11-01T09:31:56.835Z,43.22
2022-11-01T09:34:25.341Z,48.00
2022-11-01T09:36:55.576Z,46.00
2022-11-01T09:39:24.133Z,47.47
2022-11-01T09:41:58.005Z,49.60
2022-11-01T09:44:28.987Z,43.58
2022-11-01T09:47:02.728Z,49.08
2022-11-01T09:49:35.400Z,45.80
2022-11-01T09:52:06.019Z,41.05
2022-11-01T09:54:35.152Z,42.00
2022-11-01T09:57:15.879Z,39.25
2022-11-01T09:59:54.303Z,54.13
2022-11-01T10:02:50.278Z,53.70
2022-11-01T10:08:11.964Z,48.40
2022-11-01T10:10:45.030Z,45.90
2022-11-01T10:13:31.418Z,44.20
2022-11-01T10:16:06.033Z,44.92
2022-11-01T10:18:39.384Z,46.85
2022-11-01T10:21:14.195Z,47.10
2022-11-01T10:24:03.886Z,47.05
2022-11-01T10:26:35.567Z,45.10
2022-11-01T10:29:09.134Z,45.85
2022-11-01T10:31:45.704Z,49.42
2022-11-01T10:34:22.611Z,42.05
2022-11-01T10:36:53.161Z,49.88
2022-11-01T10:39:55.046Z,44.78
2022-11-01T10:42:21.679Z,45.10
2022-11-01T10:44:55.459Z,48.08
2022-11-01T10:47:26.203Z,43.90
2022-11-01T10:50:06.109Z,48.85
2022-11-01T10:52:46.987Z,44.08
2022-11-01T10:55:21.335Z,43.75
2022-11-01T10:57:56.462Z,43.63
2022-11-01T11:00:25.513Z,44.38
2022-11-01T11:02:57.435Z,48.45
2022-11-01T11:05:29.153Z,43.80
2022-11-01T11:07:58.632Z,45.50
2022-11-01T11:10:30.657Z,46.83
2022-11-01T11:13:04.604Z,41.85
2022-11-01T11:15:41.273Z,46.40
2022-11-01T11:20:45.210Z,44.80
2022-11-01T11:23:14.015Z,47.22
2022-11-01T11:25:45.672Z,44.63
2022-11-01T11:28:25.712Z,41.17
2022-11-01T11:30:58.547Z,46.95
2022-11-01T11:33:29.131Z,48.47
2022-11-01T11:36:00.055Z,43.72
2022-11-01T11:38:43.291Z,46.03
2022-11-01T11:41:27.095Z,43.10
2022-11-01T11:43:55.558Z,44.42
2022-11-01T11:46:24.992Z,46.30
2022-11-01T11:48:57.045Z,47.28
2022-11-01T11:51:31.318Z,55.00
2022-11-01T11:54:19.543Z,49.60
2022-11-01T11:56:52.583Z,50.45
2022-11-01T11:59:26.939Z,54.35
2022-11-01T12:02:00.620Z,51.92
2022-11-01T12:04:34.321Z,50.58
2022-11-01T12:07:03.028Z,54.75
2022-11-01T12:09:39.019Z,55.40
2022-11-01T12:12:16.731Z,51.42
2022-11-01T12:14:45.272Z,51.22
2022-11-01T12:17:31.417Z,58.30
2022-11-01T12:20:11.589Z,54.53
2022-11-01T12:22:44.119Z,49.95
2022-11-01T12:25:16.444Z,55.80
2022-11-01T12:27:53.866Z,53.17
2022-11-01T12:30:24.723Z,55.78
2022-11-01T12:32:54.937Z,56.88
2022-11-01T12:35:27.778Z,51.63
2022-11-01T12:38:05.907Z,55.35
2022-11-01T12:40:38.474Z,50.53
2022-11-01T12:43:16.238Z,51.65
2022-11-01T12:45:51.708Z,54.28
2022-11-01T12:48:25.694Z,56.38
2022-11-01T12:50:59.816Z,51.25
2022-11-01T12:53:32.433Z,52.50
2022-11-01T12:56:00.917Z,52.33
2022-11-01T12:58:33.873Z,54.30
2022-11-01T13:01:21.510Z,55.33
2022-11-01T13:03:59.800Z,53.67
2022-11-01T13:06:48.666Z,54.33
2022-11-01T13:09:24.922Z,58.60
2022-11-01T13:12:00.995Z,49.67
2022-11-01T13:14:39.599Z,57.67
2022-11-01T13:17:17.607Z,53.63
2022-11-01T13:19:52.578Z,55.92
2022-11-01T13:22:28.737Z,55.03
2022-11-01T13:25:07.509Z,50.85
2022-11-01T13:27:42.902Z,49.63
2022-11-01T13:30:15.173Z,59.78
2022-11-01T13:32:50.925Z,56.40
2022-11-01T13:35:49.227Z,54.00
2022-11-01T13:38:29.201Z,53.67
2022-11-01T13:41:06.673Z,54.92
2022-11-01T13:43:40.232Z,58.70
2022-11-01T13:46:26.933Z,54.58
2022-11-01T13:49:23.333Z,53.40
2022-11-01T13:51:56.853Z,54.08
2022-11-01T13:54:28.940Z,58.92
2022-11-01T13:56:59.951Z,58.47
2022-11-01T13:59:33.883Z,61.88
2022-11-01T14:02:43.259Z,51.17
2022-11-01T14:05:13.601Z,59.15
2022-11-01T14:08:12.564Z,55.45
2022-11-01T14:10:49.918Z,50.13
2022-11-01T14:13:20.616Z,51.60
2022-11-01T14:16:25.613Z,57.70
2022-11-01T14:19:19.234Z,56.13
2022-11-01T14:21:56.211Z,51.92
2022-11-01T14:24:34.950Z,54.97
2022-11-01T14:27:20.055Z,55.25
2022-11-01T14:29:55.619Z,50.00
2022-11-01T14:32:27.070Z,48.40
2022-11-01T14:35:06.123Z,49.58
2022-11-01T14:37:41.445Z,52.42
2022-11-01T14:40:28.741Z,49.40
2022-11-01T14:43:02.449Z,53.03
2022-11-01T14:45:34.823Z,53.63
2022-11-01T14:48:12.581Z,51.60
2022-11-01T14:50:50.477Z,53.80
2022-11-01T14:53:25.699Z,50.20
2022-11-01T14:56:06.671Z,54.45
2022-11-01T14:58:35.498Z,60.42
2022-11-01T15:01:08.644Z,56.20
2022-11-01T15:03:37.284Z,60.00
2022-11-01T15:06:17.649Z,50.17
2022-11-01T15:08:46.431Z,57.05
2022-11-01T15:11:28.000Z,58.10
2022-11-01T15:13:58.535Z,47.35
2022-11-01T15:16:28.943Z,50.50
2022-11-01T15:19:00.688Z,49.60
2022-11-01T15:21:31.591Z,51.13
2022-11-01T15:24:03.059Z,44.88
2022-11-01T15:26:34.881Z,52.15
2022-11-01T15:29:06.362Z,49.38
2022-11-01T15:31:36.537Z,48.90
2022-11-01T15:34:07.586Z,56.67
2022-11-01T15:36:39.393Z,61.80
2022-11-01T15:39:18.748Z,54.83
2022-11-01T15:41:47.906Z,63.28
2022-11-01T15:44:25.219Z,55.53
2022-11-01T15:46:56.860Z,59.58
2022-11-01T15:49:29.474Z,54.03
2022-11-01T15:52:02.875Z,81.13
2022-11-01T15:54:45.306Z,83.45
2022-11-01T15:57:19.257Z,63.88
2022-11-01T15:59:56.125Z,46.13
2022-11-01T16:02:31.445Z,47.15
2022-11-01T16:05:01.617Z,49.57
2022-11-01T16:07:34.938Z,47.17
2022-11-01T16:10:05.617Z,42.78
2022-11-01T16:12:37.965Z,39.95
2022-11-01T16:15:09.700Z,39.42
2022-11-01T16:17:43.027Z,42.55
2022-11-01T16:20:30.262Z,44.33
2022-11-01T16:23:01.377Z,41.30
2022-11-01T16:25:31.743Z,43.10
2022-11-01T16:28:03.129Z,48.35
2022-11-01T16:30:38.003Z,46.20
2022-11-01T16:33:23.035Z,46.83
2022-11-01T16:35:53.487Z,41.78
2022-11-01T16:38:37.667Z,42.30
2022-11-01T16:41:08.356Z,45.47
2022-11-01T16:43:37.066Z,44.33
2022-11-01T16:46:09.051Z,43.38
2022-11-01T16:48:51.738Z,41.40
2022-11-01T16:51:24.561Z,42.53
2022-11-01T16:53:58.106Z,38.88
2022-11-01T16:56:40.201Z,39.47
2022-11-01T16:59:15.603Z,38.38
2022-11-01T17:01:47.059Z,39.92
2022-11-01T17:04:18.926Z,38.75
2022-11-01T17:06:47.979Z,41.78
2022-11-01T17:09:19.724Z,43.13
2022-11-01T17:11:51.690Z,39.95
2022-11-01T17:14:21.420Z,45.33
2022-11-01T17:16:53.334Z,41.72
2022-11-01T17:19:29.397Z,48.40
2022-11-01T17:22:00.762Z,44.80
2022-11-01T17:24:33.583Z,49.65
2022-11-01T17:27:05.442Z,51.53
2022-11-01T17:29:36.619Z,50.58
2022-11-01T17:32:09.801Z,54.50
2022-11-01T17:34:40.129Z,56.08
2022-11-01T17:37:17.064Z,58.63
2022-11-01T17:39:47.831Z,59.78
2022-11-01T17:42:17.257Z,58.47
2022-11-01T17:44:46.131Z,55.42
2022-11-01T17:47:16.403Z,56.42
2022-11-01T17:49:46.626Z,55.97
2022-11-01T17:52:16.050Z,58.95
2022-11-01T17:54:44.709Z,58.38
2022-11-01T17:57:15.211Z,52.50
2022-11-01T17:59:44.737Z,60.22
2022-11-01T18:02:13.664Z,55.95
2022-11-01T18:04:42.511Z,56.92
2022-11-01T18:07:13.419Z,59.05
2022-11-01T18:09:43.611Z,56.47
2022-11-01T18:12:23.649Z,57.67
2022-11-01T18:14:56.959Z,54.13
2022-11-01T18:17:39.968Z,53.75
2022-11-01T18:20:20.867Z,53.22
2022-11-01T18:22:55.593Z,55.75
2022-11-01T18:25:29.515Z,55.40
2022-11-01T18:28:02.493Z,58.40
2022-11-01T18:30:32.686Z,56.45
2022-11-01T18:33:05.710Z,64.53
2022-11-01T18:35:39.988Z,52.88
2022-11-01T18:38:25.957Z,50.25
2022-11-01T18:43:34.080Z,49.53
2022-11-01T18:46:24.035Z,50.20
2022-11-01T18:49:00.062Z,46.55
2022-11-01T18:51:31.485Z,48.78
2022-11-01T18:54:21.863Z,44.95
2022-11-01T18:56:52.859Z,46.10
2022-11-01T18:59:30.455Z,38.92
2022-11-01T19:02:03.368Z,46.35
2022-11-01T19:04:35.769Z,35.42
2022-11-01T19:07:12.861Z,31.33
2022-11-01T19:09:44.142Z,28.83
2022-11-01T19:12:17.342Z,34.58
2022-11-01T19:14:52.045Z,41.53
2022-11-01T19:17:25.392Z,40.08
2022-11-01T19:19:55.576Z,34.65
2022-11-01T19:22:37.956Z,35.58
2022-11-01T19:25:19.969Z,40.00
2022-11-01T19:27:50.750Z,35.38
2022-11-01T19:30:26.543Z,30.15
2022-11-01T19:33:03.435Z,30.70
2022-11-01T19:35:32.485Z,27.33
2022-11-01T19:38:01.954Z,34.47
2022-11-01T19:40:41.189Z,25.42
2022-11-01T19:43:15.464Z,28.75
2022-11-01T19:45:48.226Z,28.65
2022-11-01T19:48:19.541Z,25.90
2022-11-01T19:50:48.873Z,27.23
2022-11-01T19:53:23.438Z,25.75
2022-11-01T19:55:59.858Z,24.40
2022-11-01T19:58:34.690Z,22.30
2022-11-01T20:01:37.583Z,27.10
2022-11-01T20:04:15.636Z,21.05
2022-11-01T20:06:50.061Z,23.48
2022-11-01T20:09:27.069Z,23.75
2022-11-01T20:11:58.861Z,20.67
2022-11-01T20:14:29.306Z,23.20
2022-11-01T20:16:58.032Z,18.98
2022-11-01T20:19:35.104Z,22.98
2022-11-01T20:22:08.333Z,22.85
2022-11-01T20:24:40.989Z,21.70
2022-11-01T20:27:12.209Z,22.63
2022-11-01T20:29:41.386Z,23.55
2022-11-01T20:32:10.997Z,22.42
2022-11-01T20:34:43.006Z,25.42
2022-11-01T20:37:27.922Z,20.67
2022-11-01T20:39:57.739Z,21.67
2022-11-01T20:42:26.692Z,21.10
2022-11-01T20:44:55.848Z,23.85
2022-11-01T20:47:25.122Z,21.20
2022-11-01T20:49:57.400Z,20.75
2022-11-01T20:52:39.763Z,20.65
2022-11-01T20:55:10.637Z,17.17
2022-11-01T20:57:39.951Z,19.55
2022-11-01T21:00:13.145Z,20.40
2022-11-01T21:02:42.037Z,22.05
2022-11-01T21:05:21.999Z,18.52
2022-11-01T21:07:50.867Z,20.35
2022-11-01T21:10:35.807Z,21.17
2022-11-01T21:13:08.894Z,19.80
2022-11-01T21:15:39.159Z,22.75
2022-11-01T21:18:35.842Z,22.83
2022-11-01T21:21:46.516Z,21.27
2022-11-01T21:24:28.063Z,21.10
2022-11-01T21:27:16.619Z,20.05
2022-11-01T21:29:47.361Z,20.20
2022-11-01T21:32:30.049Z,19.35
2022-11-01T21:34:59.135Z,18.67
2022-11-01T21:37:31.403Z,19.25
2022-11-01T21:40:06.575Z,26.40
2022-11-01T21:42:37.480Z,19.42
2022-11-01T21:45:29.267Z,20.58
2022-11-01T21:48:01.803Z,22.05
2022-11-01T21:50:30.849Z,19.65
2022-11-01T21:53:01.045Z,21.02
2022-11-01T21:55:29.940Z,25.05
2022-11-01T21:57:58.713Z,19.90
2022-11-01T22:00:27.538Z,20.85
2022-11-01T22:02:56.117Z,24.13
2022-11-01T22:05:24.551Z,24.02
2022-11-01T22:07:53.774Z,25.80
2022-11-01T22:10:24.276Z,23.08
2022-11-01T22:12:52.897Z,21.77
2022-11-01T22:15:21.567Z,20.05
2022-11-01T22:17:50.116Z,24.92
2022-11-01T22:20:18.327Z,24.05
2022-11-01T22:22:47.074Z,22.63
2022-11-01T22:25:16.009Z,20.08
2022-11-01T22:27:45.789Z,21.50
2022-11-01T22:30:15.129Z,23.33
2022-11-01T22:32:43.839Z,22.88
2022-11-01T22:35:12.559Z,21.40
2022-11-01T22:37:41.052Z,21.08
2022-11-01T22:40:14.128Z,20.13
2022-11-01T22:42:42.703Z,20.05
2022-11-01T22:45:17.964Z,20.63
2022-11-01T22:47:47.246Z,17.63
2022-11-01T22:50:29.823Z,18.95
2022-11-01T22:52:58.525Z,18.80
2022-11-01T22:55:28.959Z,16.67
2022-11-01T22:58:04.837Z,20.13
2022-11-01T23:00:36.379Z,16.85
2022-11-01T23:03:15.899Z,19.83
2022-11-01T23:05:44.225Z,19.38
2022-11-01T23:08:22.017Z,18.20
2022-11-01T23:10:52.407Z,18.75
2022-11-01T23:13:42.880Z,19.95
2022-11-01T23:16:23.691Z,23.15
2022-11-01T23:18:53.857Z,17.95
2022-11-01T23:21:23.304Z,17.25
2022-11-01T23:23:52.074Z,18.27
2022-11-01T23:26:21.260Z,17.92
2022-11-01T23:28:53.405Z,23.55
2022-11-01T23:31:25.859Z,24.40
2022-11-01T23:33:54.451Z,22.17
2022-11-01T23:36:26.415Z,22.13
2022-11-01T23:41:37.489Z,18.25
2022-11-01T23:44:16.352Z,19.33
2022-11-01T23:46:46.033Z,20.00
2022-11-01T23:49:19.283Z,18.48
2022-11-01T23:51:47.885Z,20.70
2022-11-01T23:54:23.433Z,20.48
2022-11-01T23:56:52.556Z,22.33
2022-11-01T23:59:21.238Z,17.60
